Time;durP1;ratioP1;P1;durP2;ratioP2;P2;SDS_P1;SDS_P2;PMS_P1;PMS_P2;Temp;Humidity;BMP_temperature;BMP_pressure;BME280_temperature;BME280_humidity;BME280_pressure;Samples;Min_cycle;Max_cycle;Signal;HPM_P1;HPM_P2
2022/03/25 00:00:04;;;;;;;14.53;9.10;;;;;;;13.85;24.72;94878.97;5038462;28;20244;-80
2022/03/25 00:02:30;;;;;;;10.10;8.20;;;;;;;13.90;26.13;94872.28;5044359;28;20208;-79
2022/03/25 00:04:55;;;;;;;10.90;7.07;;;;;;;13.67;26.19;94865.69;5062355;28;20425;-79
2022/03/25 00:07:21;;;;;;;10.13;7.70;;;;;;;13.24;25.93;94868.78;5057022;28;20216;-79
2022/03/25 00:09:46;;;;;;;12.33;8.13;;;;;;;13.50;26.44;94859.28;5037040;28;20238;-80
2022/03/25 00:12:12;;;;;;;11.20;8.20;;;;;;;13.61;26.22;94861.28;5040558;28;20208;-80
2022/03/25 00:14:38;;;;;;;13.00;8.57;;;;;;;13.52;25.58;94846.72;5062937;28;20171;-80
2022/03/25 00:17:03;;;;;;;12.30;9.47;;;;;;;13.86;25.46;94848.22;5063875;28;20227;-80
2022/03/25 00:19:29;;;;;;;7.30;6.47;;;;;;;13.52;25.78;94846.72;5059761;28;20266;-80
2022/03/25 00:21:55;;;;;;;6.70;6.10;;;;;;;13.64;25.76;94842.47;5043396;28;20191;-80
2022/03/25 00:24:20;;;;;;;10.90;7.17;;;;;;;13.63;26.36;94836.38;5032835;28;20171;-80
2022/03/25 00:26:47;;;;;;;11.07;8.37;;;;;;;14.00;25.35;94841.06;5037359;28;20189;-80
2022/03/25 00:29:13;;;;;;;10.53;6.43;;;;;;;13.75;25.05;94836.50;5054671;28;20181;-80
2022/03/25 00:31:39;;;;;;;11.23;8.40;;;;;;;13.61;25.68;94843.66;5040905;28;20977;-79
2022/03/25 00:34:04;;;;;;;12.10;8.17;;;;;;;13.76;25.53;94835.50;5046978;28;20429;-81
2022/03/25 00:36:30;;;;;;;9.13;6.70;;;;;;;13.54;25.68;94837.63;5060486;28;20183;-80
2022/03/25 00:38:55;;;;;;;12.50;6.83;;;;;;;13.46;25.64;94829.97;5045913;28;20217;-80
2022/03/25 00:41:23;;;;;;;9.80;8.17;;;;;;;13.69;25.56;94837.34;5062115;28;20190;-80
2022/03/25 00:43:49;;;;;;;8.37;7.50;;;;;;;13.47;26.20;94837.66;5066397;28;20189;-81
2022/03/25 00:46:15;;;;;;;12.40;9.20;;;;;;;13.65;25.95;94823.81;5061727;28;20429;-80
2022/03/25 00:48:42;;;;;;;8.80;7.63;;;;;;;13.75;25.31;94826.00;5054608;28;20201;-82
2022/03/25 00:51:08;;;;;;;9.40;5.90;;;;;;;13.39;25.52;94824.75;5051147;28;20536;-81
2022/03/25 00:53:34;;;;;;;8.87;6.90;;;;;;;13.89;25.10;94815.41;5063688;28;20417;-81
2022/03/25 00:56:03;;;;;;;16.70;8.77;;;;;;;13.99;25.18;94813.16;5051001;28;20924;-81
2022/03/25 00:58:29;;;;;;;10.07;7.93;;;;;;;14.01;24.37;94811.91;5059706;28;20493;-81
2022/03/25 01:00:55;;;;;;;8.27;7.47;;;;;;;13.90;24.90;94817.84;5023866;28;20431;-80
2022/03/25 01:06:05;;;;;;;10.27;7.43;;;;;;;13.72;25.42;94807.22;5067164;28;20220;-80
2022/03/25 01:08:30;;;;;;;10.47;7.57;;;;;;;13.82;25.00;94810.19;5033328;28;20429;-80
2022/03/25 01:10:56;;;;;;;11.17;8.03;;;;;;;13.83;24.88;94809.19;5056733;28;20586;-80
2022/03/25 01:13:22;;;;;;;8.23;6.90;;;;;;;13.74;25.87;94807.81;5062694;28;20179;-80
2022/03/25 01:15:48;;;;;;;7.53;6.20;;;;;;;13.72;24.85;94807.22;5062131;28;20221;-81
2022/03/25 01:18:14;;;;;;;9.03;7.90;;;;;;;13.83;24.66;94803.94;5067098;28;20424;-80
2022/03/25 01:20:41;;;;;;;11.10;7.80;;;;;;;13.47;25.97;94800.03;5057943;28;20209;-80
2022/03/25 01:23:06;;;;;;;15.13;7.10;;;;;;;13.88;24.61;94798.81;5051794;28;20443;-80
2022/03/25 01:25:32;;;;;;;8.37;7.40;;;;;;;13.89;25.07;94804.88;5070287;28;20413;-79
2022/03/25 01:27:58;;;;;;;8.27;6.13;;;;;;;13.92;24.77;94807.09;5039466;28;20193;-80
2022/03/25 01:30:23;;;;;;;10.00;6.63;;;;;;;13.65;25.01;94796.72;5071045;28;20932;-79
2022/03/25 01:32:50;;;;;;;12.57;7.30;;;;;;;14.11;25.03;94803.53;5070721;28;20183;-80
2022/03/25 01:35:15;;;;;;;9.50;7.43;;;;;;;14.06;24.79;94798.13;5071023;28;20182;-80
2022/03/25 01:37:41;;;;;;;7.00;6.40;;;;;;;14.04;24.63;94805.44;5061685;28;20480;-80
2022/03/25 01:40:09;;;;;;;10.03;7.20;;;;;;;13.99;25.08;94808.69;5058580;28;20198;-80
2022/03/25 01:42:36;;;;;;;9.53;8.03;;;;;;;13.63;25.09;94804.00;5049454;28;20205;-80
2022/03/25 01:45:03;;;;;;;7.53;6.30;;;;;;;13.72;24.94;94804.59;5067541;28;20426;-79
2022/03/25 01:47:30;;;;;;;8.50;6.70;;;;;;;13.56;26.05;94792.72;5039979;28;20449;-79
2022/03/25 01:49:57;;;;;;;8.50;7.30;;;;;;;13.48;25.44;94807.69;5060250;28;20433;-80
2022/03/25 01:52:23;;;;;;;8.30;7.40;;;;;;;13.40;26.13;94815.81;5050801;28;20528;-79
2022/03/25 01:54:48;;;;;;;7.20;6.50;;;;;;;13.25;25.65;94826.56;5068652;28;20433;-80
2022/03/25 01:57:14;;;;;;;9.33;7.90;;;;;;;13.46;25.72;94832.59;5052865;28;20178;-80
2022/03/25 01:59:39;;;;;;;7.10;5.83;;;;;;;13.31;26.04;94824.94;5066937;28;20261;-80
2022/03/25 02:02:06;;;;;;;8.63;7.40;;;;;;;13.50;25.53;94825.09;5061486;28;20182;-80
2022/03/25 02:04:32;;;;;;;10.80;8.27;;;;;;;13.34;26.31;94824.53;5070494;28;20175;-80
2022/03/25 02:06:58;;;;;;;8.93;8.13;;;;;;;13.31;25.99;94821.53;5044922;28;20564;-79
2022/03/25 02:09:27;;;;;;;9.03;7.70;;;;;;;13.33;25.97;94820.28;5064552;28;20412;-80
2022/03/25 02:11:52;;;;;;;9.87;7.40;;;;;;;13.19;25.93;94821.31;5059935;28;20275;-80
2022/03/25 02:14:18;;;;;;;9.83;7.07;;;;;;;13.15;26.37;94817.50;5068562;28;20416;-80
2022/03/25 02:16:46;;;;;;;9.53;7.80;;;;;;;13.28;26.67;94822.72;5050276;28;20270;-80
2022/03/25 02:19:13;;;;;;;8.73;7.90;;;;;;;13.40;25.86;94826.34;5049620;28;20511;-79
2022/03/25 02:21:40;;;;;;;8.90;8.13;;;;;;;12.86;27.05;94823.00;5051486;28;20460;-79
2022/03/25 02:24:07;;;;;;;8.10;6.30;;;;;;;13.03;26.68;94812.88;5062803;28;20421;-80
2022/03/25 02:26:35;;;;;;;9.67;7.97;;;;;;;13.08;26.18;94809.63;5055432;28;20536;-80
2022/03/25 02:29:00;;;;;;;11.90;6.70;;;;;;;12.93;26.62;94806.41;5056140;28;20437;-80
2022/03/25 02:31:27;;;;;;;12.63;7.20;;;;;;;13.08;26.53;94799.91;5062685;28;20453;-79
2022/03/25 02:33:56;;;;;;;8.20;7.40;;;;;;;12.83;26.45;94807.63;5068901;28;20209;-80
2022/03/25 02:36:21;;;;;;;8.30;6.90;;;;;;;12.82;26.76;94807.84;5064161;28;20428;-80
2022/03/25 02:38:47;;;;;;;8.33;7.17;;;;;;;12.95;26.37;94801.75;5069944;28;20503;-80
2022/03/25 02:41:12;;;;;;;8.17;7.43;;;;;;;12.72;26.63;94796.94;5064097;28;20193;-81
2022/03/25 02:43:37;;;;;;;10.93;7.80;;;;;;;12.72;26.83;94792.50;5057732;28;20181;-80
2022/03/25 02:46:04;;;;;;;8.87;7.20;;;;;;;12.96;26.36;94798.94;5033635;28;20179;-80
2022/03/25 02:48:29;;;;;;;9.00;7.40;;;;;;;13.09;26.50;94798.91;5052420;28;20189;-79
2022/03/25 02:50:55;;;;;;;14.03;7.30;;;;;;;12.84;26.42;94797.94;5058592;28;20432;-80
2022/03/25 02:53:20;;;;;;;6.07;5.20;;;;;;;12.78;26.44;94796.94;5054355;28;20231;-81
2022/03/25 02:55:46;;;;;;;8.63;7.73;;;;;;;13.03;26.48;94791.84;5063030;28;20198;-80
2022/03/25 02:58:12;;;;;;;9.50;7.23;;;;;;;12.91;26.68;94788.22;5068069;28;20170;-80
2022/03/25 03:00:38;;;;;;;10.70;7.50;;;;;;;12.72;26.55;94797.75;5060748;28;20688;-80
2022/03/25 03:03:04;;;;;;;11.67;7.00;;;;;;;12.72;26.95;94795.13;5054613;28;20418;-80
2022/03/25 03:05:31;;;;;;;12.30;7.67;;;;;;;12.84;26.16;94796.13;5063369;28;20183;-80
2022/03/25 03:07:57;;;;;;;7.37;6.67;;;;;;;12.86;26.75;94799.34;5037566;28;20421;-80
2022/03/25 03:10:24;;;;;;;7.60;6.90;;;;;;;12.92;26.30;94796.91;5058856;28;20897;-80
2022/03/25 03:12:50;;;;;;;7.80;6.90;;;;;;;12.78;26.44;94796.13;5060775;28;20487;-80
2022/03/25 03:15:17;;;;;;;8.37;7.40;;;;;;;12.61;26.56;94801.78;5063211;28;20417;-80
2022/03/25 03:17:47;;;;;;;12.80;7.77;;;;;;;12.81;26.23;94799.16;5057000;28;20465;-80
2022/03/25 03:20:14;;;;;;;15.00;7.30;;;;;;;12.65;26.77;94803.03;5054763;28;20473;-80
2022/03/25 03:22:40;;;;;;;9.53;7.10;;;;;;;12.79;26.31;94798.56;5050294;28;20445;-80
2022/03/25 03:25:06;;;;;;;8.53;7.27;;;;;;;12.94;26.36;94805.38;5050668;28;20422;-80
2022/03/25 03:27:31;;;;;;;13.03;7.87;;;;;;;12.74;26.82;94805.44;5048422;28;20175;-81
2022/03/25 03:29:58;;;;;;;9.03;8.10;;;;;;;12.75;26.83;94813.09;5058215;28;20986;-80
2022/03/25 03:32:25;;;;;;;8.90;8.00;;;;;;;12.54;27.28;94805.41;5058737;28;20186;-81
2022/03/25 03:34:53;;;;;;;9.63;8.33;;;;;;;12.93;26.30;94811.66;5062966;28;20426;-80
2022/03/25 03:37:20;;;;;;;10.60;8.40;;;;;;;12.73;26.86;94809.06;5067933;28;20437;-80
2022/03/25 03:39:45;;;;;;;11.77;8.47;;;;;;;12.72;26.72;94815.31;5058402;28;20492;-80
2022/03/25 03:42:11;;;;;;;12.20;7.53;;;;;;;12.92;26.18;94816.13;5059494;28;20448;-80
2022/03/25 03:44:38;;;;;;;10.40;8.60;;;;;;;12.83;26.72;94814.72;5062352;28;20199;-81
2022/03/25 03:47:06;;;;;;;12.10;7.97;;;;;;;12.31;27.53;94817.13;5061093;28;20214;-81
2022/03/25 03:49:31;;;;;;;8.90;7.20;;;;;;;12.42;27.04;94813.09;5056040;28;20430;-80
2022/03/25 03:51:57;;;;;;;10.10;8.50;;;;;;;12.72;27.05;94812.69;5052120;28;20504;-81
2022/03/25 03:54:23;;;;;;;13.13;9.40;;;;;;;12.64;26.69;94811.91;5052978;28;20262;-81
2022/03/25 03:56:48;;;;;;;12.73;8.10;;;;;;;12.39;27.66;94800.41;5029132;28;20179;-80
2022/03/25 03:59:13;;;;;;;13.33;9.23;;;;;;;12.24;27.58;94806.63;5046907;28;20199;-81
2022/03/25 04:01:39;;;;;;;8.97;7.40;;;;;;;12.21;27.67;94812.28;5045509;28;20262;-80
2022/03/25 04:04:05;;;;;;;7.87;7.10;;;;;;;12.21;27.42;94812.28;5058572;28;20183;-80
2022/03/25 04:06:31;;;;;;;7.90;6.90;;;;;;;12.52;26.98;94810.91;5060999;28;20213;-80
2022/03/25 04:08:57;;;;;;;12.13;8.77;;;;;;;12.42;26.87;94819.16;5054840;28;20503;-80
2022/03/25 04:11:23;;;;;;;12.67;7.77;;;;;;;12.76;26.35;94808.66;5065962;28;20528;-80
2022/03/25 04:13:49;;;;;;;10.80;8.70;;;;;;;12.44;26.45;94811.88;5046722;28;20176;-80
2022/03/25 04:16:14;;;;;;;8.33;7.57;;;;;;;12.42;27.13;94815.72;5053291;28;20550;-80
2022/03/25 04:18:40;;;;;;;13.57;7.40;;;;;;;12.44;27.06;94817.13;5042284;28;20190;-80
2022/03/25 04:21:05;;;;;;;7.70;6.33;;;;;;;12.38;27.07;94810.06;5066656;28;20192;-80
2022/03/25 04:23:31;;;;;;;8.33;7.53;;;;;;;12.59;26.90;94814.31;5064175;28;20186;-80
2022/03/25 04:25:57;;;;;;;9.80;7.40;;;;;;;12.40;27.49;94815.91;5042710;28;20666;-80
2022/03/25 04:28:22;;;;;;;8.83;7.90;;;;;;;12.15;27.97;94818.31;5040002;28;20189;-80
2022/03/25 04:30:48;;;;;;;14.80;7.70;;;;;;;12.13;27.53;94815.09;5057774;28;20549;-80
2022/03/25 04:33:13;;;;;;;10.33;7.30;;;;;;;12.22;27.87;94818.34;5039213;28;20187;-79
2022/03/25 04:35:39;;;;;;;10.50;8.30;;;;;;;12.23;27.60;94826.00;5050816;28;20193;-80
2022/03/25 04:38:05;;;;;;;9.03;8.03;;;;;;;12.00;28.37;94821.13;5046361;28;20186;-79
2022/03/25 04:40:31;;;;;;;10.13;8.47;;;;;;;12.22;27.58;94820.97;5049631;28;20202;-80
2022/03/25 04:42:59;;;;;;;8.37;7.07;;;;;;;12.06;28.04;94819.50;5066202;28;20411;-80
2022/03/25 04:45:26;;;;;;;11.03;8.50;;;;;;;12.07;28.01;94827.19;5056410;28;20418;-80
2022/03/25 04:47:52;;;;;;;12.67;8.00;;;;;;;12.12;28.21;94823.97;5043275;28;20940;-80
2022/03/25 04:50:19;;;;;;;9.07;5.87;;;;;;;12.03;27.89;94822.56;5046440;28;20434;-79
2022/03/25 04:52:45;;;;;;;7.20;6.50;;;;;;;12.17;28.17;94826.81;5045639;28;20485;-79
2022/03/25 04:55:11;;;;;;;13.50;9.10;;;;;;;12.47;27.74;94826.44;5054662;28;20425;-80
2022/03/25 04:57:40;;;;;;;12.77;10.63;;;;;;;12.11;28.25;94825.78;5050204;28;20446;-81
2022/03/25 05:00:08;;;;;;;10.83;8.80;;;;;;;12.27;27.83;94826.41;5036639;28;20479;-80
2022/03/25 05:02:34;;;;;;;12.00;9.03;;;;;;;12.55;27.25;94828.84;5057958;28;20442;-81
2022/03/25 05:05:00;;;;;;;11.23;9.17;;;;;;;12.48;27.97;94834.13;5049315;28;20425;-80
2022/03/25 05:07:26;;;;;;;12.83;6.97;;;;;;;12.25;27.96;94834.47;5060024;28;20434;-81
2022/03/25 05:09:51;;;;;;;14.70;9.00;;;;;;;12.58;27.86;94828.47;5045789;28;20471;-80
2022/03/25 05:12:17;;;;;;;9.50;8.50;;;;;;;12.25;27.69;94834.47;5058688;28;20186;-80
2022/03/25 05:14:43;;;;;;;9.53;8.13;;;;;;;12.63;27.70;94830.47;5054033;28;20178;-80
2022/03/25 05:17:08;;;;;;;10.27;8.50;;;;;;;12.47;28.02;94832.50;5051258;28;20511;-80
2022/03/25 05:19:34;;;;;;;7.53;6.23;;;;;;;12.23;27.76;94839.13;5045596;28;20199;-79
2022/03/25 05:21:59;;;;;;;11.13;9.77;;;;;;;12.58;27.91;94838.16;5049046;28;20586;-80
2022/03/25 05:24:26;;;;;;;13.40;9.87;;;;;;;12.78;27.59;94838.94;5049620;28;20190;-79
2022/03/25 05:26:52;;;;;;;15.50;8.53;;;;;;;13.13;26.90;94833.47;5052022;28;20641;-80
2022/03/25 05:29:18;;;;;;;19.00;9.63;;;;;;;12.83;27.58;94843.59;5056469;28;20503;-80
2022/03/25 05:31:44;;;;;;;9.80;8.53;;;;;;;12.80;27.19;94836.91;5037489;28;20450;-79
2022/03/25 05:34:09;;;;;;;11.03;8.43;;;;;;;13.31;26.07;94838.09;5065330;28;20182;-79
2022/03/25 05:36:35;;;;;;;13.00;9.37;;;;;;;13.27;26.93;94834.22;5041575;28;20190;-80
2022/03/25 05:39:02;;;;;;;10.83;7.80;;;;;;;13.45;26.32;94833.63;5062135;28;21008;-80
2022/03/25 05:41:28;;;;;;;12.43;8.63;;;;;;;13.31;26.48;94834.66;5053500;28;20214;-80
2022/03/25 05:43:54;;;;;;;15.07;9.97;;;;;;;13.66;25.82;94829.91;5039524;28;20516;-80
2022/03/25 05:46:20;;;;;;;14.37;9.37;;;;;;;13.95;25.57;94833.00;5046921;28;20513;-80
2022/03/25 05:48:46;;;;;;;15.03;9.97;;;;;;;13.85;25.19;94833.47;5056623;28;20515;-80
2022/03/25 05:51:12;;;;;;;13.00;9.60;;;;;;;14.00;24.78;94831.34;5044837;28;20184;-78
2022/03/25 05:53:38;;;;;;;12.40;9.27;;;;;;;14.19;25.02;94840.16;5044541;28;20226;-80
2022/03/25 05:56:05;;;;;;;10.80;8.67;;;;;;;14.43;25.01;94838.56;5028778;28;20438;-79
2022/03/25 05:58:35;;;;;;;10.33;8.57;;;;;;;14.03;25.70;94836.19;5058809;28;20410;-79
2022/03/25 06:01:02;;;;;;;16.53;10.40;;;;;;;14.34;24.68;94845.13;5033411;28;20457;-79
2022/03/25 06:03:28;;;;;;;11.90;8.83;;;;;;;14.39;24.73;94847.13;5026969;28;20430;-80
2022/03/25 06:05:53;;;;;;;13.60;9.57;;;;;;;14.81;24.26;94850.88;5043855;28;20492;-80
2022/03/25 06:08:19;;;;;;;17.27;10.83;;;;;;;15.06;23.31;94843.97;5053097;28;20397;-81
2022/03/25 06:10:44;;;;;;;7.77;6.60;;;;;;;14.79;23.85;94839.75;5054640;28;20171;-80
2022/03/25 06:13:10;;;;;;;13.10;9.47;;;;;;;14.89;23.36;94838.47;5057705;28;20175;-80
2022/03/25 06:15:35;;;;;;;11.90;10.70;;;;;;;15.10;23.37;94839.88;5064956;28;20174;-79
2022/03/25 06:18:01;;;;;;;13.53;9.07;;;;;;;15.40;22.64;94845.25;5039900;28;20187;-80
2022/03/25 06:20:29;;;;;;;16.30;9.73;;;;;;;15.63;22.57;94849.88;5043673;28;20198;-80
2022/03/25 06:22:55;;;;;;;14.40;9.97;;;;;;;15.55;22.41;94847.53;5058789;28;20183;-79
2022/03/25 06:25:20;;;;;;;13.60;9.70;;;;;;;15.92;22.37;94853.63;5059439;28;20445;-80
2022/03/25 06:27:48;;;;;;;13.57;11.13;;;;;;;15.97;22.15;94861.72;5069210;28;20428;-79
2022/03/25 06:30:14;;;;;;;24.20;12.00;;;;;;;15.69;22.70;94853.47;5055427;28;20179;-80
2022/03/25 06:32:40;;;;;;;15.03;9.40;;;;;;;15.19;22.91;94849.94;5056265;28;20433;-80
2022/03/25 06:35:07;;;;;;;18.90;11.70;;;;;;;15.85;22.58;94862.66;5056415;28;20409;-80
2022/03/25 06:37:33;;;;;;;16.70;10.40;;;;;;;15.57;22.95;94846.28;5057086;28;20429;-80
2022/03/25 06:39:58;;;;;;;14.87;10.03;;;;;;;15.79;22.29;94849.31;5055358;28;20488;-80
2022/03/25 06:42:24;;;;;;;19.23;12.83;;;;;;;15.79;22.72;94859.09;5057924;28;20435;-80
2022/03/25 06:44:49;;;;;;;23.17;10.57;;;;;;;15.77;22.62;94854.00;5059781;28;20171;-80
2022/03/25 06:47:15;;;;;;;14.97;10.97;;;;;;;15.62;22.75;94856.19;5056349;28;20638;-79
2022/03/25 06:49:41;;;;;;;19.07;13.07;;;;;;;15.89;22.44;94869.91;5055689;28;20181;-80
2022/03/25 06:52:07;;;;;;;12.13;10.93;;;;;;;15.83;22.61;94867.38;5041651;28;20293;-80
2022/03/25 06:54:33;;;;;;;22.23;13.60;;;;;;;16.37;22.05;94863.81;5047589;28;20418;-81
2022/03/25 06:56:58;;;;;;;13.90;10.50;;;;;;;15.76;22.03;94862.97;5051817;28;20445;-80
2022/03/25 06:59:24;;;;;;;16.60;11.93;;;;;;;15.28;22.81;94850.47;5056701;28;20210;-81
2022/03/25 07:01:50;;;;;;;16.57;12.50;;;;;;;15.57;22.54;94856.03;5042365;28;20225;-81
2022/03/25 07:04:15;;;;;;;21.37;14.83;;;;;;;16.05;22.58;94860.59;5059415;28;20175;-80
2022/03/25 07:06:46;;;;;;;21.20;14.10;;;;;;;15.90;22.35;94868.91;5037490;28;20250;-80
2022/03/25 07:09:11;;;;;;;21.77;14.43;;;;;;;16.02;22.09;94854.94;5044525;28;20607;-81
2022/03/25 07:11:37;;;;;;;21.43;15.30;;;;;;;16.52;21.68;94871.34;5056502;28;20433;-81
2022/03/25 07:14:02;;;;;;;11.63;7.60;;;;;;;15.85;22.78;94865.31;5061940;28;20156;-80
2022/03/25 07:16:28;;;;;;;43.03;15.13;;;;;;;15.86;22.63;94864.25;5067280;28;20260;-80
2022/03/25 07:18:55;;;;;;;19.90;13.67;;;;;;;15.99;22.54;94864.09;5048243;28;20215;-80
2022/03/25 07:21:21;;;;;;;28.40;14.80;;;;;;;15.94;22.78;94854.22;5050575;28;20205;-80
2022/03/25 07:23:46;;;;;;;22.07;14.90;;;;;;;15.95;22.50;94865.56;5064964;28;20511;-80
2022/03/25 07:26:12;;;;;;;19.40;12.03;;;;;;;15.91;22.73;94877.59;5054287;28;20178;-81
2022/03/25 07:28:37;;;;;;;25.40;13.60;;;;;;;15.66;22.57;94861.84;5029976;28;20182;-80
2022/03/25 07:31:05;;;;;;;17.60;12.40;;;;;;;16.24;22.35;94865.81;5055162;28;20518;-80
2022/03/25 07:33:30;;;;;;;13.47;8.57;;;;;;;16.03;22.31;94867.94;5029981;28;20175;-82
2022/03/25 07:35:56;;;;;;;18.40;9.37;;;;;;;16.20;22.32;94879.47;5050758;28;20421;-81
2022/03/25 07:38:22;;;;;;;16.63;13.10;;;;;;;16.33;22.07;94865.31;5046434;28;20257;-80
2022/03/25 07:40:48;;;;;;;30.97;14.87;;;;;;;16.12;22.52;94861.28;5062159;28;20280;-80
2022/03/25 07:43:13;;;;;;;87.73;22.03;;;;;;;15.99;22.76;94872.84;5064151;28;20456;-79
2022/03/25 07:45:39;;;;;;;18.90;12.60;;;;;;;16.67;22.01;94870.09;5055438;28;20183;-79
2022/03/25 07:48:05;;;;;;;26.17;12.37;;;;;;;16.56;22.52;94864.56;5052688;28;20171;-80
2022/03/25 07:50:31;;;;;;;35.83;12.67;;;;;;;16.52;22.18;94868.69;5063327;28;20170;-79
2022/03/25 07:52:56;;;;;;;21.83;12.77;;;;;;;16.58;22.31;94872.28;5059033;28;20525;-80
2022/03/25 07:55:23;;;;;;;26.30;13.20;;;;;;;17.27;21.47;94879.75;5060841;28;20421;-81
2022/03/25 07:57:50;;;;;;;11.40;9.40;;;;;;;16.67;21.99;94875.38;5053311;28;20243;-81
2022/03/25 08:00:17;;;;;;;32.93;13.10;;;;;;;16.60;21.85;94875.47;5054827;28;20461;-81
2022/03/25 08:02:52;;;;;;;35.33;14.30;;;;;;;16.89;22.05;94892.34;5059433;28;20433;-81
2022/03/25 08:05:18;;;;;;;13.00;11.63;;;;;;;16.32;22.25;94868.97;5042880;28;20447;-81
2022/03/25 08:07:54;;;;;;;14.43;11.40;;;;;;;16.96;22.08;94889.59;5057089;28;20431;-81
2022/03/25 08:10:28;;;;;;;17.10;11.83;;;;;;;16.71;22.13;94885.28;5060941;28;20405;-80
2022/03/25 08:12:56;;;;;;;16.87;11.90;;;;;;;17.06;21.90;94883.75;5061369;28;20410;-81
2022/03/25 08:15:23;;;;;;;20.03;11.17;;;;;;;17.20;21.73;94881.69;5065430;28;20440;-79
2022/03/25 08:17:55;;;;;;;12.40;10.80;;;;;;;16.92;21.98;94869.91;5052842;28;20434;-81
2022/03/25 08:20:33;;;;;;;15.40;11.33;;;;;;;17.13;22.12;94881.78;5050551;28;20484;-81
2022/03/25 08:23:00;;;;;;;18.90;10.03;;;;;;;17.13;21.86;94879.13;5047677;28;20462;-81
2022/03/25 08:28:11;;;;;;;35.13;16.00;;;;;;;16.71;22.28;94887.09;5065216;28;20545;-81
2022/03/25 08:30:37;;;;;;;20.37;12.20;;;;;;;17.29;21.24;94885.59;5065481;28;20465;-81
2022/03/25 08:33:04;;;;;;;33.97;13.30;;;;;;;16.92;21.81;94868.09;5063578;28;20626;-80
2022/03/25 08:35:30;;;;;;;22.50;12.00;;;;;;;17.20;21.58;94885.13;5065737;28;20441;-80
2022/03/25 08:37:56;;;;;;;22.30;11.70;;;;;;;16.87;21.46;94860.03;5052901;28;20990;-80
2022/03/25 08:40:23;;;;;;;15.27;10.90;;;;;;;17.41;21.31;94878.44;5066470;28;20448;-83
2022/03/25 08:42:49;;;;;;;22.60;9.37;;;;;;;17.40;21.37;94874.22;5053215;28;20438;-80
2022/03/25 08:45:15;;;;;;;19.33;11.67;;;;;;;16.75;22.04;94882.97;5046344;28;20451;-81
2022/03/25 08:47:41;;;;;;;35.10;11.80;;;;;;;17.98;21.17;94864.56;5043062;28;20178;-81
2022/03/25 08:50:09;;;;;;;18.27;11.30;;;;;;;17.45;21.17;94863.72;5065856;28;20417;-81
2022/03/25 08:52:36;;;;;;;23.20;11.33;;;;;;;17.32;21.75;94871.91;5053352;28;20458;-80
2022/03/25 08:55:02;;;;;;;24.33;15.00;;;;;;;17.95;20.53;94884.41;5053790;28;20424;-81
2022/03/25 08:57:27;;;;;;;16.73;9.23;;;;;;;17.62;20.81;94866.47;5035855;28;20434;-81
2022/03/25 08:59:53;;;;;;;27.13;11.27;;;;;;;17.62;20.99;94855.88;5063737;28;20449;-81
2022/03/25 09:02:18;;;;;;;21.07;11.83;;;;;;;17.79;20.38;94869.19;5066760;28;20181;-81
2022/03/25 09:04:46;;;;;;;15.97;10.70;;;;;;;17.94;21.14;94856.28;5031118;28;20179;-80
2022/03/25 09:07:12;;;;;;;29.13;11.33;;;;;;;18.68;20.18;94852.84;5056827;28;20182;-80
2022/03/25 09:09:38;;;;;;;16.10;9.90;;;;;;;17.72;20.74;94856.09;5064806;28;20441;-80
2022/03/25 09:12:04;;;;;;;24.87;13.70;;;;;;;17.44;20.30;94859.47;5048540;28;20433;-81
2022/03/25 09:14:29;;;;;;;16.67;10.57;;;;;;;17.98;20.68;94859.28;5049197;28;20464;-81
2022/03/25 09:16:55;;;;;;;20.80;10.73;;;;;;;18.10;20.87;94844.16;5053918;28;20432;-81
2022/03/25 09:19:20;;;;;;;16.77;10.80;;;;;;;18.08;20.84;94848.06;5051046;28;20258;-80
2022/03/25 09:21:46;;;;;;;18.57;10.53;;;;;;;17.93;19.93;94828.22;5057843;28;20274;-81
2022/03/25 09:24:12;;;;;;;24.57;10.80;;;;;;;18.60;20.20;94839.22;5051693;28;20167;-81
2022/03/25 09:26:38;;;;;;;11.87;8.73;;;;;;;19.16;19.35;94832.16;5065203;28;20178;-81
2022/03/25 09:29:04;;;;;;;25.97;11.17;;;;;;;18.77;19.46;94834.72;5052194;28;20425;-81
2022/03/25 09:31:29;;;;;;;9.23;8.30;;;;;;;18.53;19.22;94829.56;5045149;28;20191;-81
2022/03/25 09:35:08;;;;;;;27.93;10.53;;;;;;;18.82;19.13;94836.66;5048381;28;20174;-81
2022/03/25 09:36:40;;;;;;;24.30;10.57;;;;;;;18.90;19.50;94829.13;5058254;28;20193;-82
2022/03/25 09:39:06;;;;;;;25.23;10.93;;;;;;;19.49;18.74;94836.59;5051378;28;20489;-81
2022/03/25 09:41:31;;;;;;;19.37;9.67;;;;;;;18.58;19.14;94788.28;5061219;28;20214;-80
2022/03/25 09:43:57;;;;;;;45.97;12.20;;;;;;;19.00;18.69;94839.06;5034923;28;20178;-81
2022/03/25 09:46:25;;;;;;;17.53;9.10;;;;;;;18.18;18.77;94821.78;5024635;28;20187;-80
2022/03/25 09:48:50;;;;;;;47.43;11.17;;;;;;;18.73;18.78;94828.28;5034992;28;20934;-81
2022/03/25 09:51:16;;;;;;;18.17;8.67;;;;;;;18.75;18.91;94844.75;5076722;28;20440;-81
2022/03/25 09:53:42;;;;;;;17.73;9.53;;;;;;;18.83;18.33;94841.72;5025651;28;20183;-81
2022/03/25 09:56:08;;;;;;;11.80;8.97;;;;;;;18.77;18.17;94813.50;5037375;28;20843;-81
2022/03/25 09:58:34;;;;;;;10.53;7.83;;;;;;;19.13;18.00;94837.16;5061952;28;20413;-82
2022/03/25 10:00:59;;;;;;;7.27;6.57;;;;;;;19.22;17.94;94795.91;5049155;28;20437;-81
2022/03/25 10:03:32;;;;;;;8.47;7.10;;;;;;;18.57;18.33;94837.03;5049151;28;20312;-80
2022/03/25 10:06:01;;;;;;;10.30;6.23;;;;;;;18.77;17.79;94808.19;5046058;28;20273;-80
2022/03/25 10:08:33;;;;;;;9.67;7.37;;;;;;;19.57;17.51;94824.75;5068900;28;20880;-81
2022/03/25 10:11:25;;;;;;;10.50;7.57;;;;;;;19.01;17.76;94808.88;5036148;28;20446;-81
2022/03/25 10:14:15;;;;;;;15.47;7.43;;;;;;;20.01;17.23;94831.94;5063455;28;20418;-81
2022/03/25 10:16:42;;;;;;;15.63;9.03;;;;;;;20.05;16.36;94817.94;5038055;28;20540;-81
2022/03/25 10:19:10;;;;;;;10.50;7.50;;;;;;;20.59;16.39;94826.94;5031009;28;20464;-81
2022/03/25 10:21:59;;;;;;;10.60;7.20;;;;;;;20.39;16.42;94820.38;5011397;28;20442;-80
2022/03/25 10:24:48;;;;;;;7.90;7.10;;;;;;;20.36;16.37;94815.56;5031314;28;20395;-81
2022/03/25 10:27:26;;;;;;;7.43;6.60;;;;;;;19.89;16.09;94797.53;5049131;28;20422;-82
2022/03/25 10:29:55;;;;;;;8.10;7.00;;;;;;;20.11;16.37;94818.78;5045345;28;20477;-83
2022/03/25 10:32:26;;;;;;;17.53;6.80;;;;;;;20.12;16.77;94812.41;5030675;28;20564;-81
2022/03/25 10:35:04;;;;;;;8.93;7.20;;;;;;;19.47;17.09;94776.84;5048691;28;20545;-82
2022/03/25 10:37:29;;;;;;;11.50;7.47;;;;;;;19.81;16.95;94787.38;5048690;28;20453;-81
2022/03/25 10:39:55;;;;;;;7.57;6.70;;;;;;;20.20;16.58;94797.84;5036582;28;20448;-81
2022/03/25 10:42:21;;;;;;;12.97;7.47;;;;;;;20.39;16.30;94791.13;5057631;28;20550;-80
2022/03/25 10:44:47;;;;;;;7.80;5.83;;;;;;;19.21;16.96;94784.47;5050751;28;20176;-79
2022/03/25 10:47:15;;;;;;;14.83;6.97;;;;;;;20.53;16.13;94806.69;5054353;28;20449;-80
2022/03/25 10:49:43;;;;;;;10.50;7.97;;;;;;;20.93;15.80;94794.81;5065072;28;20611;-80
2022/03/25 10:52:32;;;;;;;16.80;7.50;;;;;;;20.03;16.66;94788.16;5058109;28;20470;-80
2022/03/25 10:55:34;;;;;;;6.07;5.03;;;;;;;19.94;16.39;94789.66;5029660;28;20495;-80
2022/03/25 10:57:59;;;;;;;7.57;6.13;;;;;;;20.67;16.49;94797.25;4967860;29;20406;-79
2022/03/25 11:00:26;;;;;;;28.13;7.07;;;;;;;20.02;16.38;94788.41;5030872;28;20508;-79
2022/03/25 11:02:52;;;;;;;8.50;7.60;;;;;;;20.23;16.19;94781.44;5048366;28;20190;-79
2022/03/25 11:05:18;;;;;;;10.70;7.20;;;;;;;20.54;16.04;94800.31;5048793;28;20465;-79
2022/03/25 11:07:46;;;;;;;8.67;7.37;;;;;;;20.54;15.86;94771.84;5052873;28;20455;-79
2022/03/25 11:10:13;;;;;;;7.77;5.30;;;;;;;19.96;15.99;94782.22;5059178;28;20210;-80
2022/03/25 11:12:43;;;;;;;8.90;7.40;;;;;;;20.82;15.92;94791.25;5047549;28;20457;-79
2022/03/25 11:15:14;;;;;;;18.10;7.90;;;;;;;20.23;16.04;94786.75;5050351;28;20499;-79
2022/03/25 11:17:43;;;;;;;9.70;7.13;;;;;;;20.58;16.16;94786.28;5066055;28;20530;-80
2022/03/25 11:20:11;;;;;;;7.77;6.97;;;;;;;21.64;15.52;94784.59;5067708;28;20453;-80
2022/03/25 11:23:00;;;;;;;13.50;7.50;;;;;;;21.83;15.18;94771.59;5067733;28;20432;-79
2022/03/25 11:25:28;;;;;;;7.43;6.43;;;;;;;21.59;15.48;94773.09;5052326;28;20409;-80
2022/03/25 11:28:05;;;;;;;14.20;5.53;;;;;;;20.83;15.39;94769.72;5047766;28;21008;-80
2022/03/25 11:30:33;;;;;;;13.60;8.10;;;;;;;20.99;15.64;94775.94;5042676;28;20456;-79